Terminal Aerodrome Forecast
Issued by NWS

Home | Current Version | Previous Version | Text Only | Print | Product List | Glossary On
Versions: 1 2 3 4 5 6 7 8 9 10 11 12 13 14 15 16 17
000
FTAK31 PAJN 311900 AAA
TAFAPG
TAF AMD
PAPG 311938Z 3120/0118 06006KT P6SM FEW004 SCT020 SCT035
     FM010400 VRB03KT P6SM SCT120
     FM010800 00000KT 3SM BR FEW002
      TEMPO 0108/0112 1/2SM FG BKN002
      AMD LTD TO CLD VIS AND WIND 0106/0115=

USA.gov is the U.S. government's official web portal to all federal, state and local government web resources and services.